Fort Calhoun, NE

6:12 AM CDT on September 01, 2015 (GMT -0500)
P39 Dvs weather | | Change Station
CLOSE
Current Station
Personal Weather Station
Location: Fort Calhoun, NE
Elevation: 1250 ft
Nearby Weather Stations

Elev 1250 ft 41.47 °N, 96.07 °W | Updated 11 minutes ago

Clear
Clear
71.8 °F
Feels Like 70 °F
N
6.0
Wind Variable Wind from South
Gusts 13.0 mph

Today
High -- | Low -- °F
--% Chance of Precip.
Yesterday
High -- | Low -- °F
Precip. -- in
6:50 AM 7:57 PM
Waning Gibbous, 89% visible
Pressure 29.93 in
Visibility 10.0 miles
Clouds Clear
Heat Index 70 °F
Dew Point 68 °F
Humidity 86%
Rainfall 0.00 in
Snow Depth Not available.
UV 0 out of 12
Pollen 11.10 out of 12
Air Quality Not available.
Flu Activity Not available.
METAR KBTA 011055Z AUTO 17008KT 10SM CLR 21/19 A2993 RMK AO2 T02070185
Pressure 29.93 in
Visibility 10.0 miles
Clouds Clear
Heat Index 70 °F
Dew Point 68 °F
Humidity 86%
Rainfall 0.00 in
Snow Depth Not available.
UV 0 out of 12
Pollen 11.10 out of 12
Air Quality Not available.
Flu Activity Not available.
METAR KBTA 011055Z AUTO 17008KT 10SM CLR 21/19 A2993 RMK AO2 T02070185

10-Day Weather Forecast

×

Almanac

Astronomy

Sep. 01, 2015 Rise Set
Actual Time
Civil Twilight
Nautical Twilight
Astronomical Twilight
Moon
Length of Visible Light
Length of Day
Tomorrow will be .
, % of the Moon is Illuminated

Today's Extremes

State Highs State Lows

Community

WunderPhotos

Upload Photos

1,851,501 photos uploaded!

WunderBlogs® & News

Nearby

Air Quality

  Air Quality AQ Index Pollutant
Not available.

Snow Depth

Station Depth Elevation

Earthquake Activity

City Distance Mag. Time & Date
Minimum magnitude displayed is 2.5.

Coastal Water Temperatures

Place Temperature

Stations

Nearby Weather Stations

Station Location Temp. Windchill Dew Point Humidity Wind Precip. Elev Updated Type